Time;durP1;ratioP1;P1;durP2;ratioP2;P2;SDS_P1;SDS_P2;PMS_P1;PMS_P2;Temp;Humidity;BMP_temperature;BMP_pressure;BME280_temperature;BME280_humidity;BME280_pressure;Samples;Min_cycle;Max_cycle;Signal;HPM_P1;HPM_P2
2023/07/07 00:00:40;;;;;;;3.13;0.90;;;;;;;18.74;57.67;101207.91;7360441;19;20011;-63
2023/07/07 00:03:07;;;;;;;8.05;3.25;;;;;;;18.74;57.69;101215.91;7361542;19;20038;-62
2023/07/07 00:05:34;;;;;;;2.50;0.80;;;;;;;18.71;57.64;101212.81;7360093;19;20018;-62
2023/07/07 00:08:02;;;;;;;2.58;0.80;;;;;;;18.70;57.19;101216.50;7357810;19;21631;-62
2023/07/07 00:10:29;;;;;;;4.35;0.77;;;;;;;18.68;57.48;101216.72;7360219;19;20423;-63
2023/07/07 00:12:58;;;;;;;2.30;0.88;;;;;;;18.65;57.65;101217.09;7362859;19;20049;-63
2023/07/07 00:15:26;;;;;;;2.72;0.80;;;;;;;18.60;57.68;101219.50;7360273;19;20021;-63
2023/07/07 00:17:53;;;;;;;4.10;0.80;;;;;;;18.56;57.26;101207.59;7362620;19;20026;-63
2023/07/07 00:20:24;;;;;;;5.18;0.80;;;;;;;18.53;57.55;101213.31;7359630;19;20161;-63
2023/07/07 00:22:52;;;;;;;2.70;0.88;;;;;;;18.52;57.85;101221.50;7357682;19;20859;-63
2023/07/07 00:25:19;;;;;;;3.03;0.63;;;;;;;18.50;57.67;101218.19;7361565;19;20954;-65
2023/07/07 00:27:46;;;;;;;2.30;0.80;;;;;;;18.45;57.66;101208.09;7361982;19;20695;-63
2023/07/07 00:30:13;;;;;;;3.35;0.80;;;;;;;18.43;57.78;101218.16;7359208;19;20019;-64
2023/07/07 00:32:40;;;;;;;3.75;0.80;;;;;;;18.39;57.73;101217.69;7361296;19;20018;-63
2023/07/07 00:35:08;;;;;;;4.45;0.77;;;;;;;18.36;58.03;101225.28;7360944;19;20734;-61
2023/07/07 00:37:35;;;;;;;5.00;1.08;;;;;;;18.36;58.52;101222.59;7362267;19;20042;-61
2023/07/07 00:40:03;;;;;;;5.00;1.00;;;;;;;18.35;58.52;101221.78;7362959;19;20617;-62
2023/07/07 00:42:30;;;;;;;4.25;1.00;;;;;;;18.33;58.77;101223.00;7358613;19;20030;-64
2023/07/07 00:45:12;;;;;;;2.95;0.80;;;;;;;18.29;58.82;101221.72;7357967;19;20021;-63
2023/07/07 00:47:42;;;;;;;4.07;0.80;;;;;;;18.29;59.19;101217.22;7359113;19;20018;-62
2023/07/07 00:50:11;;;;;;;4.95;1.10;;;;;;;18.26;59.23;101214.13;7356473;19;20018;-61
2023/07/07 00:52:43;;;;;;;2.63;0.98;;;;;;;18.27;58.45;101215.78;7358809;19;20340;-61
2023/07/07 00:55:21;;;;;;;3.92;0.90;;;;;;;18.25;59.08;101213.28;7361466;19;20312;-63
2023/07/07 00:57:49;;;;;;;3.75;0.85;;;;;;;18.21;58.52;101220.03;7356309;19;20022;-62
2023/07/07 01:00:19;;;;;;;5.43;0.95;;;;;;;18.21;58.79;101220.03;7356961;19;20098;-62
2023/07/07 01:02:54;;;;;;;3.17;0.80;;;;;;;18.18;58.88;101217.78;7359493;19;20037;-64
2023/07/07 01:05:25;;;;;;;4.47;0.80;;;;;;;18.19;59.17;101213.25;7358598;19;20022;-62
2023/07/07 01:07:53;;;;;;;3.05;0.88;;;;;;;18.18;59.29;101215.09;7358612;19;20030;-62
2023/07/07 01:10:21;;;;;;;2.75;0.70;;;;;;;18.19;59.65;101214.06;7358147;19;20275;-63
2023/07/07 01:12:51;;;;;;;2.35;0.80;;;;;;;18.20;59.27;101220.22;7358769;19;20681;-63
2023/07/07 01:15:23;;;;;;;3.00;0.80;;;;;;;18.18;59.67;101211.63;7357932;19;20022;-63
2023/07/07 01:18:07;;;;;;;3.55;0.88;;;;;;;18.16;59.46;101222.44;7358819;19;20015;-62
2023/07/07 01:20:43;;;;;;;3.60;1.33;;;;;;;18.16;59.55;101219.78;7362082;19;20951;-63
2023/07/07 01:23:21;;;;;;;5.18;1.40;;;;;;;18.13;59.75;101209.53;7358488;19;20685;-62
2023/07/07 01:26:00;;;;;;;3.00;0.90;;;;;;;18.13;59.67;101220.19;7357640;19;20106;-62
2023/07/07 01:28:43;;;;;;;2.90;1.00;;;;;;;18.09;59.57;101213.56;7359923;19;20955;-62
2023/07/07 01:31:17;;;;;;;5.97;1.17;;;;;;;18.09;59.86;101215.41;7358665;19;20015;-63
2023/07/07 01:33:47;;;;;;;4.47;1.10;;;;;;;18.07;59.90;101215.63;7363744;19;20599;-62
2023/07/07 01:36:18;;;;;;;4.35;0.80;;;;;;;18.07;60.07;101220.94;7367218;19;20775;-63
2023/07/07 01:38:47;;;;;;;2.33;0.90;;;;;;;18.07;60.06;101215.63;7367350;19;20102;-63
2023/07/07 01:41:17;;;;;;;2.20;0.80;;;;;;;18.05;59.31;101212.31;7367079;19;20530;-63
2023/07/07 01:44:02;;;;;;;3.15;0.80;;;;;;;18.04;59.67;101216.00;7365655;19;20014;-63
2023/07/07 01:49:13;;;;;;;3.60;0.73;;;;;;;17.97;59.48;101214.28;7365302;19;20062;-62
2023/07/07 01:51:51;;;;;;;3.63;0.90;;;;;;;17.95;60.51;101212.66;7363682;19;20024;-64
2023/07/07 01:54:22;;;;;;;3.28;0.70;;;;;;;17.95;60.62;101204.66;7366324;19;20952;-63
2023/07/07 01:56:53;;;;;;;2.35;0.90;;;;;;;17.94;60.61;101205.66;7366517;19;20447;-64
2023/07/07 01:59:24;;;;;;;3.45;0.98;;;;;;;17.94;60.83;101207.50;7362080;19;20366;-62
2023/07/07 02:01:53;;;;;;;2.70;0.80;;;;;;;17.90;60.30;101208.91;7362692;19;20086;-63
2023/07/07 02:04:24;;;;;;;3.97;0.80;;;;;;;17.88;60.25;101202.94;7366416;19;20022;-63
2023/07/07 02:06:52;;;;;;;3.47;1.00;;;;;;;17.87;60.89;101204.81;7362042;19;20144;-62
2023/07/07 02:09:20;;;;;;;3.13;1.10;;;;;;;17.89;60.94;101205.41;7366579;19;20022;-65
2023/07/07 02:11:47;;;;;;;2.35;0.90;;;;;;;17.90;60.87;101206.25;7366069;19;20364;-62
2023/07/07 02:14:16;;;;;;;5.28;0.90;;;;;;;17.89;60.85;101202.75;7365893;19;20040;-62
2023/07/07 02:16:46;;;;;;;4.05;0.98;;;;;;;17.88;60.96;101205.59;7365411;19;20018;-62
2023/07/07 02:19:19;;;;;;;4.18;0.70;;;;;;;17.86;60.95;101203.16;7365549;19;20026;-63
2023/07/07 02:21:48;;;;;;;6.13;0.90;;;;;;;17.86;61.38;101207.66;7365169;19;20018;-62
2023/07/07 02:24:18;;;;;;;3.42;0.95;;;;;;;17.84;61.27;101202.50;7366374;19;20014;-62
2023/07/07 02:26:46;;;;;;;3.53;0.93;;;;;;;17.80;61.24;101198.56;7364053;19;20463;-63
2023/07/07 02:29:13;;;;;;;2.42;1.00;;;;;;;17.78;61.14;101199.78;7365223;19;20146;-63
2023/07/07 02:31:40;;;;;;;4.68;1.00;;;;;;;17.77;61.34;101200.81;7365736;19;20014;-62
2023/07/07 02:34:08;;;;;;;4.65;1.00;;;;;;;17.78;61.61;101189.94;7365085;19;20018;-62
2023/07/07 02:39:03;;;;;;;3.70;0.88;;;;;;;17.77;62.15;101184.84;7366155;19;20668;-64
2023/07/07 02:41:30;;;;;;;3.58;0.70;;;;;;;17.76;62.33;101184.00;7362710;19;20018;-63
2023/07/07 02:43:59;;;;;;;2.03;0.75;;;;;;;17.76;61.73;101183.19;7363834;19;20023;-63
2023/07/07 02:46:24;;;;;;;3.83;0.70;;;;;;;17.74;61.30;101186.03;7358646;19;20570;-63
2023/07/07 02:48:52;;;;;;;3.13;0.80;;;;;;;17.70;61.84;101175.94;7359020;19;20101;-64
2023/07/07 02:51:21;;;;;;;4.82;0.93;;;;;;;17.67;61.65;101174.50;7360179;19;20051;-63
2023/07/07 02:53:49;;;;;;;3.47;0.88;;;;;;;17.64;61.94;101168.72;7360761;19;20019;-63
2023/07/07 02:56:19;;;;;;;2.65;0.70;;;;;;;17.64;62.28;101171.38;7365848;19;20366;-63
2023/07/07 02:58:48;;;;;;;4.45;0.80;;;;;;;17.65;62.64;101173.03;7362264;19;21849;-63
2023/07/07 03:01:19;;;;;;;4.45;0.90;;;;;;;17.65;62.47;101176.53;7360295;19;20027;-63
2023/07/07 03:03:49;;;;;;;4.90;1.10;;;;;;;17.67;62.29;101174.50;7361061;19;20014;-61
2023/07/07 03:06:21;;;;;;;2.45;0.88;;;;;;;17.68;62.57;101173.47;7364553;19;20014;-63
2023/07/07 03:08:49;;;;;;;3.92;0.90;;;;;;;17.70;62.21;101174.13;7364369;19;20006;-63
2023/07/07 03:11:22;;;;;;;4.22;1.23;;;;;;;17.70;61.98;101175.94;7364940;19;20033;-63
2023/07/07 03:13:50;;;;;;;5.03;0.93;;;;;;;17.67;62.51;101171.03;7361197;19;20022;-62
2023/07/07 03:16:24;;;;;;;4.00;1.00;;;;;;;17.64;62.56;101177.53;7363848;19;20628;-63
2023/07/07 03:18:55;;;;;;;4.03;0.80;;;;;;;17.62;63.44;101173.44;7358925;19;21713;-63
2023/07/07 03:21:23;;;;;;;4.97;1.08;;;;;;;17.64;62.92;101176.72;7363843;19;20015;-63
2023/07/07 03:23:53;;;;;;;3.38;1.00;;;;;;;17.66;63.45;101172.03;7361739;19;20011;-62
2023/07/07 03:26:23;;;;;;;4.38;1.00;;;;;;;17.65;63.60;101173.88;7361369;19;20011;-62
2023/07/07 03:28:52;;;;;;;2.58;1.00;;;;;;;17.63;64.09;101175.06;7363123;19;20019;-62
2023/07/07 03:31:25;;;;;;;5.38;1.13;;;;;;;17.62;64.05;101168.94;7362634;19;20010;-63
2023/07/07 03:33:56;;;;;;;2.15;1.10;;;;;;;17.63;64.20;101161.75;7362234;19;20010;-62
2023/07/07 03:36:29;;;;;;;4.32;1.10;;;;;;;17.63;64.04;101159.09;7362520;19;20006;-62
2023/07/07 03:38:57;;;;;;;3.42;1.10;;;;;;;17.64;63.89;101160.75;7363417;19;20487;-62
2023/07/07 03:41:28;;;;;;;3.88;1.05;;;;;;;17.63;63.97;101156.41;7362189;19;20006;-63
2023/07/07 03:43:55;;;;;;;3.22;1.20;;;;;;;17.62;64.26;101160.13;7360414;19;20020;-63
2023/07/07 03:46:25;;;;;;;5.20;1.00;;;;;;;17.58;64.23;101156.97;7359725;19;20506;-63
2023/07/07 03:48:54;;;;;;;3.70;1.10;;;;;;;17.55;64.62;101149.38;7359205;19;20022;-63
2023/07/07 03:51:26;;;;;;;4.00;0.98;;;;;;;17.52;65.23;101160.41;7362540;19;20022;-63
2023/07/07 03:53:54;;;;;;;2.75;1.23;;;;;;;17.53;65.02;101162.03;7362294;19;20025;-63
2023/07/07 03:56:26;;;;;;;6.68;2.05;;;;;;;17.48;65.32;101167.94;7361677;19;20034;-62
2023/07/07 03:58:54;;;;;;;3.97;0.80;;;;;;;17.47;65.46;101163.63;7357870;19;20010;-63
2023/07/07 04:01:22;;;;;;;5.95;1.10;;;;;;;17.44;65.69;101158.69;7359185;19;21917;-63
2023/07/07 04:03:49;;;;;;;4.18;1.20;;;;;;;17.44;65.80;101163.19;7358026;19;20022;-63
2023/07/07 04:06:20;;;;;;;5.05;1.10;;;;;;;17.46;66.91;101169.16;7361004;19;20010;-63
2023/07/07 04:08:48;;;;;;;6.93;1.20;;;;;;;17.46;66.27;101164.66;7361698;19;20499;-61
2023/07/07 04:11:21;;;;;;;3.58;1.10;;;;;;;17.46;65.96;101163.81;7358997;19;20018;-62
2023/07/07 04:13:50;;;;;;;4.75;1.45;;;;;;;17.46;66.15;101164.66;7361525;19;20026;-62
2023/07/07 04:16:24;;;;;;;4.90;1.00;;;;;;;17.46;65.83;101162.00;7360085;19;20021;-64
2023/07/07 04:18:55;;;;;;;3.00;1.20;;;;;;;17.47;65.86;101173.47;7360077;19;20016;-62
2023/07/07 04:21:27;;;;;;;3.38;1.17;;;;;;;17.46;66.29;101167.31;7359587;19;20038;-62
2023/07/07 04:23:55;;;;;;;2.33;0.88;;;;;;;17.48;65.88;101162.59;7359476;19;20388;-64
2023/07/07 04:26:25;;;;;;;5.07;1.20;;;;;;;17.50;65.62;101160.59;7362469;19;20029;-63
2023/07/07 04:28:53;;;;;;;4.57;1.50;;;;;;;17.53;65.70;101162.03;7362211;19;20495;-62
2023/07/07 04:31:24;;;;;;;5.45;1.30;;;;;;;17.52;65.71;101169.19;7360696;19;20014;-62
2023/07/07 04:33:54;;;;;;;5.68;1.70;;;;;;;17.53;66.19;101168.19;7357232;19;20018;-62
2023/07/07 04:36:24;;;;;;;5.13;1.35;;;;;;;17.53;66.61;101162.84;7362425;19;20105;-62
2023/07/07 04:38:52;;;;;;;5.65;1.48;;;;;;;17.55;66.07;101168.00;7358307;19;21410;-61
2023/07/07 04:41:22;;;;;;;7.07;1.58;;;;;;;17.56;66.01;101160.84;7359822;19;20019;-61
2023/07/07 04:43:51;;;;;;;4.45;1.42;;;;;;;17.54;66.11;101161.84;7359542;19;21321;-62
2023/07/07 04:46:27;;;;;;;4.32;1.30;;;;;;;17.57;65.94;101165.16;7361414;19;20025;-63
2023/07/07 04:48:55;;;;;;;5.68;1.48;;;;;;;17.57;65.91;101173.16;7357478;19;20018;-61
2023/07/07 04:51:25;;;;;;;6.90;1.60;;;;;;;17.56;66.24;101169.66;7361095;19;20014;-63
2023/07/07 04:53:52;;;;;;;4.90;1.67;;;;;;;17.61;66.28;101163.78;7359970;19;20015;-62
2023/07/07 04:56:23;;;;;;;5.47;1.40;;;;;;;17.60;65.96;101170.94;7361492;19;20019;-62
2023/07/07 04:58:56;;;;;;;5.40;1.77;;;;;;;17.62;66.07;101173.44;7359100;19;21687;-62
2023/07/07 05:01:26;;;;;;;6.25;1.67;;;;;;;17.65;66.25;101171.19;7355590;19;20022;-63
2023/07/07 05:03:56;;;;;;;5.07;1.70;;;;;;;17.66;66.33;101170.19;7356627;19;20924;-63
2023/07/07 05:06:26;;;;;;;4.13;1.63;;;;;;;17.69;67.05;101169.81;7359875;19;20536;-63
2023/07/07 05:08:53;;;;;;;6.55;1.80;;;;;;;17.72;66.06;101179.25;7356598;19;20019;-63
2023/07/07 05:11:25;;;;;;;4.22;1.52;;;;;;;17.72;66.14;101180.09;7360686;19;20364;-62
2023/07/07 05:13:53;;;;;;;6.43;1.83;;;;;;;17.75;66.20;101178.88;7361083;19;20037;-62
2023/07/07 05:16:24;;;;;;;6.07;1.65;;;;;;;17.76;65.95;101178.69;7358461;19;20086;-63
2023/07/07 05:18:52;;;;;;;5.70;1.80;;;;;;;17.79;65.69;101166.81;7356669;19;20938;-63
2023/07/07 05:21:22;;;;;;;4.38;1.20;;;;;;;17.83;65.63;101178.72;7360056;19;22031;-62
2023/07/07 05:23:51;;;;;;;7.22;1.83;;;;;;;17.86;65.53;101175.69;7357539;19;20041;-63
2023/07/07 05:26:23;;;;;;;4.93;1.48;;;;;;;17.89;65.60;101177.97;7357259;19;20014;-62
2023/07/07 05:28:51;;;;;;;4.72;1.85;;;;;;;17.91;66.31;101179.44;7359724;19;21159;-61
2023/07/07 05:31:22;;;;;;;4.38;1.60;;;;;;;17.94;65.21;101194.19;7358688;19;20924;-63
2023/07/07 05:33:51;;;;;;;6.68;1.92;;;;;;;17.93;65.75;101182.72;7358943;19;20025;-63
2023/07/07 05:36:21;;;;;;;5.32;1.65;;;;;;;17.97;66.54;101188.50;7359571;19;20055;-62
2023/07/07 05:38:50;;;;;;;6.00;1.83;;;;;;;17.99;66.16;101193.59;7357912;19;20038;-62
2023/07/07 05:41:18;;;;;;;4.85;1.17;;;;;;;18.01;67.06;101205.72;7360776;19;20029;-62
2023/07/07 05:43:45;;;;;;;5.53;1.83;;;;;;;18.04;66.86;101196.53;7354234;19;20592;-61
2023/07/07 05:46:17;;;;;;;4.38;1.63;;;;;;;18.05;66.55;101198.16;7359613;19;20049;-62
2023/07/07 05:48:46;;;;;;;4.22;1.98;;;;;;;18.07;66.67;101194.31;7355203;19;20640;-63
2023/07/07 05:51:18;;;;;;;7.20;1.90;;;;;;;18.07;66.24;101182.84;7357314;19;20946;-64
2023/07/07 05:53:47;;;;;;;4.00;1.75;;;;;;;18.07;65.63;101189.00;7355813;19;20043;-62
2023/07/07 05:56:23;;;;;;;8.27;1.80;;;;;;;18.10;65.45;101183.25;7359106;19;21913;-63
2023/07/07 05:58:53;;;;;;;7.05;2.00;;;;;;;18.13;65.36;101190.06;7357743;19;20026;-63
2023/07/07 06:01:21;;;;;;;3.55;1.50;;;;;;;18.16;64.99;101179.00;7357983;19;20031;-62
2023/07/07 06:03:48;;;;;;;6.95;1.90;;;;;;;18.19;65.74;101182.09;7353212;19;20397;-63
2023/07/07 06:06:18;;;;;;;5.30;1.63;;;;;;;18.25;65.89;101186.66;7358382;19;20376;-63
2023/07/07 06:08:47;;;;;;;4.78;1.45;;;;;;;18.33;66.12;101180.38;7356123;19;20026;-63
2023/07/07 06:11:14;;;;;;;7.30;1.90;;;;;;;18.39;65.96;101182.22;7356290;19;20149;-63
2023/07/07 06:13:42;;;;;;;6.13;2.17;;;;;;;18.44;65.95;101187.00;7356248;19;21809;-62
2023/07/07 06:16:09;;;;;;;5.95;1.70;;;;;;;18.52;66.07;101178.84;7356868;19;20011;-63
2023/07/07 06:18:37;;;;;;;6.78;2.00;;;;;;;18.59;65.23;101188.53;7354969;19;20026;-62
2023/07/07 06:21:04;;;;;;;6.53;2.17;;;;;;;18.63;64.90;101184.50;7364034;19;20033;-63
2023/07/07 06:23:33;;;;;;;6.18;1.77;;;;;;;18.71;64.73;101189.66;7362210;19;20078;-64
2023/07/07 06:26:00;;;;;;;7.25;2.00;;;;;;;18.77;64.97;101196.88;7364094;19;20018;-63
2023/07/07 06:28:30;;;;;;;4.43;2.03;;;;;;;18.82;64.64;101188.28;7363016;19;20014;-63
2023/07/07 06:30:57;;;;;;;5.57;1.70;;;;;;;18.99;63.63;101196.78;7364218;19;20014;-63
2023/07/07 06:33:25;;;;;;;7.90;2.13;;;;;;;19.16;62.94;101200.72;7364235;19;20049;-62
2023/07/07 06:35:52;;;;;;;7.93;2.35;;;;;;;19.60;62.51;101208.28;7365143;19;20656;-62
2023/07/07 06:38:21;;;;;;;5.18;1.60;;;;;;;19.85;60.87;101189.84;7365060;19;20018;-63
2023/07/07 06:40:49;;;;;;;6.05;1.75;;;;;;;19.86;60.53;101192.28;7364647;19;20015;-63
2023/07/07 06:43:19;;;;;;;5.45;1.90;;;;;;;19.81;62.20;101197.41;7362950;19;20528;-63
2023/07/07 06:45:51;;;;;;;5.35;1.45;;;;;;;19.75;62.06;101200.91;7363653;19;20019;-62
2023/07/07 06:48:21;;;;;;;6.13;1.95;;;;;;;19.73;61.94;101194.94;7361032;19;20019;-64
2023/07/07 06:50:50;;;;;;;4.40;1.55;;;;;;;19.74;62.90;101195.78;7362659;19;20386;-62
2023/07/07 06:53:17;;;;;;;7.35;1.83;;;;;;;19.69;62.69;101191.03;7363093;19;20760;-63
2023/07/07 06:55:45;;;;;;;3.42;1.38;;;;;;;19.67;63.67;101200.28;7360031;19;20031;-64
2023/07/07 07:00:43;;;;;;;7.68;1.85;;;;;;;19.68;61.28;101201.91;7361603;19;20646;-63
2023/07/07 07:03:11;;;;;;;5.93;1.48;;;;;;;19.67;61.12;101202.94;7357974;19;21813;-63
2023/07/07 07:05:37;;;;;;;6.00;1.25;;;;;;;19.66;61.02;101194.09;7360633;19;20047;-63
2023/07/07 07:08:05;;;;;;;4.10;1.10;;;;;;;19.69;61.21;101198.22;7362445;19;20020;-62
2023/07/07 07:10:32;;;;;;;3.70;1.08;;;;;;;19.71;61.23;101194.31;7366508;19;20044;-63
2023/07/07 07:13:00;;;;;;;4.57;0.98;;;;;;;19.73;61.52;101197.63;7364578;19;20007;-64
2023/07/07 07:15:27;;;;;;;5.53;1.17;;;;;;;19.77;61.26;101187.34;7361986;19;20025;-61
2023/07/07 07:17:54;;;;;;;2.10;0.80;;;;;;;19.78;61.38;101192.47;7361895;19;20073;-62
2023/07/07 07:20:25;;;;;;;4.82;1.10;;;;;;;19.79;61.53;101196.81;7360834;19;20021;-62
2023/07/07 07:22:52;;;;;;;4.38;1.20;;;;;;;19.83;61.23;101192.69;7360935;19;20053;-62
2023/07/07 07:25:20;;;;;;;6.82;1.20;;;;;;;19.88;60.65;101197.41;7364756;19;20380;-63
2023/07/07 07:27:47;;;;;;;5.97;1.20;;;;;;;19.92;59.91;101195.97;7361973;19;20074;-62
2023/07/07 07:30:15;;;;;;;5.38;1.30;;;;;;;19.97;59.67;101193.50;7358715;19;20035;-63
2023/07/07 07:32:43;;;;;;;3.55;1.00;;;;;;;20.02;59.83;101189.19;7360603;19;20032;-64
2023/07/07 07:35:11;;;;;;;5.57;1.40;;;;;;;20.08;59.65;101176.88;7363617;19;21717;-63
2023/07/07 07:37:39;;;;;;;8.13;1.80;;;;;;;20.22;57.35;101183.84;7361336;19;21841;-63
2023/07/07 07:40:07;;;;;;;6.50;1.20;;;;;;;20.29;58.00;101187.34;7362832;19;20014;-63
2023/07/07 07:42:35;;;;;;;6.22;1.10;;;;;;;20.49;57.85;101192.69;7361502;19;20026;-62
2023/07/07 07:45:03;;;;;;;5.72;1.33;;;;;;;20.97;57.74;101189.69;7359806;19;20387;-62
2023/07/07 07:47:31;;;;;;;9.10;1.65;;;;;;;21.82;56.29;101193.75;7359330;19;20018;-63
2023/07/07 07:49:58;;;;;;;7.22;1.70;;;;;;;22.59;53.97;101191.44;7358896;19;20102;-63
2023/07/07 07:52:29;;;;;;;8.45;1.23;;;;;;;23.22;51.94;101199.16;7361016;19;20044;-64
2023/07/07 07:54:57;;;;;;;5.35;1.65;;;;;;;23.53;49.62;101200.81;7362346;19;20014;-63
2023/07/07 07:57:26;;;;;;;9.48;2.03;;;;;;;23.42;50.44;101202.38;7362119;19;20026;-62
2023/07/07 07:59:53;;;;;;;7.88;1.88;;;;;;;23.40;50.78;101198.31;7358591;19;20019;-62
2023/07/07 08:02:21;;;;;;;13.40;2.22;;;;;;;23.18;53.98;101200.66;7361737;19;20027;-63
2023/07/07 08:04:49;;;;;;;11.45;2.75;;;;;;;22.98;54.53;101192.88;7356328;19;20021;-63
2023/07/07 08:07:19;;;;;;;8.98;1.88;;;;;;;22.88;53.79;101195.25;7359970;19;20006;-64
2023/07/07 08:09:50;;;;;;;6.28;2.28;;;;;;;22.84;53.71;101193.25;7361836;19;20096;-63
2023/07/07 08:12:20;;;;;;;6.85;1.88;;;;;;;22.74;53.41;101192.94;7361239;19;20014;-62
2023/07/07 08:14:52;;;;;;;12.23;2.22;;;;;;;22.50;55.50;101195.44;7362768;19;21063;-63
2023/07/07 08:17:19;;;;;;;4.63;1.73;;;;;;;22.26;56.10;101190.94;7360375;19;20022;-62
2023/07/07 08:19:47;;;;;;;10.02;1.90;;;;;;;22.09;56.91;101182.63;7358017;19;20042;-63
2023/07/07 08:22:19;;;;;;;8.63;2.38;;;;;;;22.06;57.14;101187.59;7361053;19;20547;-64
2023/07/07 08:24:51;;;;;;;17.80;2.05;;;;;;;22.00;57.14;101181.25;7360010;19;20092;-62
2023/07/07 08:27:23;;;;;;;9.27;2.00;;;;;;;22.01;58.35;101185.59;7355729;19;20030;-62
2023/07/07 08:29:55;;;;;;;10.13;2.45;;;;;;;22.18;57.98;101186.69;7359275;19;20018;-63
2023/07/07 08:32:26;;;;;;;9.77;2.42;;;;;;;22.28;57.34;101182.66;7360215;19;20010;-63
2023/07/07 08:34:55;;;;;;;11.30;2.10;;;;;;;22.31;56.71;101187.56;7362495;19;20106;-62
2023/07/07 08:37:25;;;;;;;16.13;2.35;;;;;;;22.33;57.71;101185.50;7359837;19;20971;-64
2023/07/07 08:39:52;;;;;;;10.98;2.67;;;;;;;22.41;57.11;101196.75;7361992;19;20122;-64
2023/07/07 08:42:25;;;;;;;14.20;2.95;;;;;;;22.45;57.41;101183.75;7359860;19;20684;-62
2023/07/07 08:44:52;;;;;;;;;;;;;;;22.58;57.07;101176.38;7362344;19;20026;-62
2023/07/07 08:47:40;;;;;;;10.63;2.42;;;;;;;22.60;57.22;101176.16;7358792;19;19959;-63
2023/07/07 08:50:17;;;;;;;11.18;2.97;;;;;;;22.53;58.16;101178.06;7360845;19;20142;-63
2023/07/07 08:53:01;;;;;;;9.43;2.95;;;;;;;22.46;57.76;101169.28;7361807;19;21115;-62
2023/07/07 08:55:38;;;;;;;16.55;2.95;;;;;;;22.39;57.46;101166.69;7361432;19;20010;-64
2023/07/07 08:58:18;;;;;;;12.40;3.55;;;;;;;22.48;58.00;101173.38;7358315;19;20102;-64
2023/07/07 09:01:00;;;;;;;10.95;3.33;;;;;;;22.58;57.72;101175.53;7358111;19;20026;-62
2023/07/07 09:03:37;;;;;;;8.73;3.35;;;;;;;22.57;57.39;101176.59;7357335;19;20011;-62
2023/07/07 09:06:13;;;;;;;11.48;3.22;;;;;;;22.58;56.44;101168.31;7358841;19;20150;-63
2023/07/07 09:08:53;;;;;;;8.88;2.65;;;;;;;22.47;56.97;101169.06;7361753;19;20617;-63
2023/07/07 09:11:46;;;;;;;8.82;3.03;;;;;;;22.39;57.37;101168.53;7357430;19;20035;-62
2023/07/07 09:14:14;;;;;;;11.18;2.80;;;;;;;22.37;57.74;101167.94;7358174;19;20019;-61
2023/07/07 09:16:45;;;;;;;15.85;2.83;;;;;;;22.38;58.41;101166.88;7361348;19;20637;-64
2023/07/07 09:19:17;;;;;;;10.63;3.00;;;;;;;22.41;58.15;101167.25;7359093;19;20018;-63
2023/07/07 09:21:53;;;;;;;10.55;2.80;;;;;;;22.41;57.44;101174.47;7360361;19;20014;-63
2023/07/07 09:24:33;;;;;;;8.98;2.58;;;;;;;22.41;57.67;101167.25;7359509;19;20649;-61
2023/07/07 09:27:07;;;;;;;7.85;2.20;;;;;;;22.41;57.44;101177.97;7359714;19;20026;-62
2023/07/07 09:29:34;;;;;;;13.35;2.67;;;;;;;22.47;57.13;101165.56;7360196;19;20026;-62
2023/07/07 09:32:02;;;;;;;8.00;2.30;;;;;;;22.56;56.71;101156.97;7360093;19;20078;-67
2023/07/07 09:34:33;;;;;;;10.48;2.78;;;;;;;22.64;56.11;101163.09;7361183;19;20022;-65
2023/07/07 09:37:23;;;;;;;7.32;1.92;;;;;;;22.68;56.95;101162.44;7361507;19;20427;-61
2023/07/07 09:40:07;;;;;;;6.10;1.52;;;;;;;22.74;56.45;101158.88;7361077;19;20034;-63
2023/07/07 09:42:50;;;;;;;10.18;1.42;;;;;;;22.83;56.44;101160.22;7358412;19;20052;-63
2023/07/07 09:45:34;;;;;;;9.70;1.75;;;;;;;22.95;56.61;101161.09;7356038;19;20222;-62
2023/07/07 09:48:22;;;;;;;10.65;2.17;;;;;;;23.08;56.73;101154.72;7358818;19;20996;-63
2023/07/07 09:51:04;;;;;;;6.50;1.60;;;;;;;23.22;55.24;101158.06;7358268;19;20384;-61
2023/07/07 09:53:35;;;;;;;7.82;1.80;;;;;;;23.29;55.50;101158.78;7359324;19;20474;-62
2023/07/07 09:56:25;;;;;;;9.90;2.23;;;;;;;23.35;55.60;101155.19;7370046;19;20014;-63
2023/07/07 09:59:05;;;;;;;8.20;1.60;;;;;;;23.43;56.09;101157.53;7367148;19;20029;-61
2023/07/07 10:01:37;;;;;;;7.32;1.60;;;;;;;23.50;54.94;101152.94;7365383;19;20015;-62
2023/07/07 10:04:13;;;;;;;6.60;1.30;;;;;;;23.60;54.58;101158.56;7363772;19;20018;-63
2023/07/07 10:06:47;;;;;;;4.93;1.40;;;;;;;23.65;54.56;101158.69;7357884;19;20029;-63
2023/07/07 10:09:17;;;;;;;6.65;2.03;;;;;;;23.75;53.45;101148.19;7366456;19;20056;-62
2023/07/07 10:11:46;;;;;;;6.78;1.20;;;;;;;23.83;53.50;101149.72;7364474;19;20022;-63
2023/07/07 10:14:31;;;;;;;5.70;1.50;;;;;;;23.90;53.96;101147.75;7366046;19;20006;-63
2023/07/07 10:17:08;;;;;;;4.20;1.20;;;;;;;23.93;53.40;101144.56;7366291;19;20018;-63
2023/07/07 10:19:43;;;;;;;5.05;1.33;;;;;;;24.00;53.73;101141.78;7361145;19;20097;-62
2023/07/07 10:22:15;;;;;;;5.00;1.20;;;;;;;24.11;54.06;101140.97;7367910;19;20026;-62
2023/07/07 10:24:43;;;;;;;5.05;1.38;;;;;;;24.22;52.76;101141.00;7365830;19;20583;-62
2023/07/07 10:27:16;;;;;;;7.53;1.55;;;;;;;24.28;52.91;101137.34;7366474;19;20709;-63
2023/07/07 10:29:46;;;;;;;6.47;1.10;;;;;;;24.34;53.18;101135.59;7363345;19;20090;-64
2023/07/07 10:32:17;;;;;;;6.18;1.08;;;;;;;24.43;52.34;101139.56;7364362;19;20018;-62
2023/07/07 10:34:48;;;;;;;3.53;1.00;;;;;;;24.53;52.34;101139.75;7365860;19;20683;-62
2023/07/07 10:37:22;;;;;;;6.88;1.05;;;;;;;24.57;51.10;101135.56;7364501;19;20483;-63
2023/07/07 10:39:53;;;;;;;5.18;1.13;;;;;;;24.64;50.92;101132.72;7364329;19;20481;-62
2023/07/07 10:42:24;;;;;;;6.03;1.08;;;;;;;24.70;50.48;101129.91;7366804;19;20055;-62
2023/07/07 10:44:53;;;;;;;2.85;0.90;;;;;;;24.79;50.98;101130.34;7363787;19;20015;-62
2023/07/07 10:47:26;;;;;;;5.38;1.00;;;;;;;24.88;50.83;101136.22;7365220;19;20029;-62
2023/07/07 10:50:00;;;;;;;3.53;0.82;;;;;;;24.95;50.20;101128.78;7367003;19;20026;-62
2023/07/07 10:52:39;;;;;;;4.00;1.13;;;;;;;24.99;49.99;101128.06;7362504;19;20710;-62
2023/07/07 10:55:15;;;;;;;8.45;1.10;;;;;;;25.05;50.81;101132.50;7362798;19;20022;-62
2023/07/07 10:57:52;;;;;;;6.13;1.30;;;;;;;25.08;50.17;101128.53;7358841;19;20041;-63
2023/07/07 11:00:40;;;;;;;3.33;1.00;;;;;;;25.11;49.58;101126.16;7364019;19;20018;-63
2023/07/07 11:03:09;;;;;;;5.40;1.10;;;;;;;25.19;49.75;101118.75;7360433;19;20033;-61
2023/07/07 11:05:49;;;;;;;3.88;1.17;;;;;;;25.23;48.20;101119.91;7361076;19;20666;-62
2023/07/07 11:08:49;;;;;;;5.72;1.65;;;;;;;25.29;49.44;101116.25;7356946;19;20014;-61
2023/07/07 11:11:25;;;;;;;8.38;1.10;;;;;;;25.32;47.66;101116.56;7363936;19;20451;-62
2023/07/07 11:13:54;;;;;;;9.45;2.58;;;;;;;25.34;45.94;101111.75;7363622;19;20383;-62
2023/07/07 11:16:35;;;;;;;7.63;2.22;;;;;;;25.44;45.67;101119.19;7359338;19;20021;-63
2023/07/07 11:19:13;;;;;;;7.38;1.35;;;;;;;25.49;45.18;101120.09;7364008;19;20026;-62
2023/07/07 11:21:54;;;;;;;8.70;1.33;;;;;;;25.54;44.84;101116.69;7358097;19;20098;-63
2023/07/07 11:24:34;;;;;;;9.93;1.98;;;;;;;25.61;44.67;101116.53;7356269;19;20468;-63
2023/07/07 11:27:25;;;;;;;3.70;0.95;;;;;;;25.66;44.55;101117.44;7360807;19;20121;-62
2023/07/07 11:30:02;;;;;;;6.97;1.20;;;;;;;25.71;44.49;101122.91;7360189;19;20011;-62
2023/07/07 11:32:49;;;;;;;3.95;1.05;;;;;;;25.79;44.18;101122.50;7362249;19;20122;-62
2023/07/07 11:35:28;;;;;;;4.15;1.10;;;;;;;25.86;44.13;101120.44;7360859;19;20591;-63
2023/07/07 11:38:18;;;;;;;3.58;1.10;;;;;;;25.92;44.12;101118.63;7361332;19;20700;-63
2023/07/07 11:41:02;;;;;;;4.70;0.98;;;;;;;25.97;44.86;101108.75;7358933;19;20025;-63
2023/07/07 11:43:35;;;;;;;3.47;1.10;;;;;;;26.06;44.07;101119.13;7362014;19;20587;-62
2023/07/07 11:46:22;;;;;;;4.82;1.13;;;;;;;26.09;44.07;101110.53;7359334;19;20018;-61
2023/07/07 11:48:59;;;;;;;1.90;0.90;;;;;;;26.14;44.14;101114.13;7359528;19;20076;-64
2023/07/07 11:51:42;;;;;;;4.95;1.10;;;;;;;26.19;44.34;101113.38;7360130;19;20025;-63